createdAt,value
2023-08-09T00:00:37.667Z,15.73
2023-08-09T00:03:19.313Z,15.70
2023-08-09T00:05:46.088Z,15.79
2023-08-09T00:08:19.741Z,15.79
2023-08-09T00:10:47.065Z,15.73
2023-08-09T00:13:16.288Z,15.80
2023-08-09T00:15:46.790Z,15.79
2023-08-09T00:18:18.222Z,15.82
2023-08-09T00:20:45.524Z,15.80
2023-08-09T00:23:22.901Z,15.85
2023-08-09T00:25:51.920Z,15.74
2023-08-09T00:28:24.671Z,15.74
2023-08-09T00:30:53.912Z,15.70
2023-08-09T00:33:20.843Z,15.70
2023-08-09T00:35:47.782Z,15.67
2023-08-09T00:38:20.523Z,15.70
2023-08-09T00:40:53.031Z,15.70
2023-08-09T00:43:22.751Z,15.73
2023-08-09T00:45:56.420Z,15.69
2023-08-09T00:48:35.352Z,15.62
2023-08-09T00:51:07.079Z,15.61
2023-08-09T00:53:37.647Z,15.62
2023-08-09T00:56:05.768Z,15.56
2023-08-09T01:01:42.635Z,15.59
2023-08-09T01:05:07.852Z,15.61
2023-08-09T01:07:55.737Z,15.62
2023-08-09T01:10:43.411Z,15.62
2023-08-09T01:13:11.143Z,15.66
2023-08-09T01:18:59.967Z,15.70
2023-08-09T01:21:39.842Z,15.70
2023-08-09T01:24:17.113Z,15.72
2023-08-09T01:26:52.494Z,15.70
2023-08-09T01:29:32.093Z,15.67
2023-08-09T01:31:59.758Z,15.65
2023-08-09T01:34:27.213Z,15.61
2023-08-09T01:37:00.389Z,15.65
2023-08-09T01:39:34.570Z,15.42
2023-08-09T01:42:08.150Z,15.30
2023-08-09T01:44:42.421Z,15.15
2023-08-09T01:47:09.659Z,15.15
2023-08-09T01:49:39.616Z,15.04
2023-08-09T01:52:11.878Z,15.08
2023-08-09T01:54:44.799Z,15.10
2023-08-09T01:57:27.321Z,15.08
2023-08-09T01:59:54.423Z,15.03
2023-08-09T02:02:21.230Z,15.05
2023-08-09T02:04:56.457Z,15.01
2023-08-09T02:07:23.243Z,14.98
2023-08-09T02:09:58.175Z,15.05
2023-08-09T02:12:30.684Z,15.05
2023-08-09T02:15:26.308Z,14.94
2023-08-09T02:18:01.738Z,14.98
2023-08-09T02:20:35.870Z,15.00
2023-08-09T02:23:06.627Z,15.00
2023-08-09T02:25:36.427Z,14.97
2023-08-09T02:28:03.878Z,14.97
2023-08-09T02:30:31.061Z,14.95
2023-08-09T02:32:57.887Z,14.97
2023-08-09T02:35:24.505Z,15.00
2023-08-09T02:37:51.086Z,15.07
2023-08-09T02:40:18.430Z,15.11
2023-08-09T02:42:45.310Z,15.05
2023-08-09T02:45:12.108Z,15.03
2023-08-09T02:47:39.830Z,14.94
2023-08-09T02:50:07.490Z,14.88
2023-08-09T02:52:34.409Z,14.79
2023-08-09T02:55:06.968Z,14.77
2023-08-09T02:57:38.128Z,14.77
2023-08-09T03:00:05.446Z,14.66
2023-08-09T03:02:32.119Z,14.72
2023-08-09T03:05:04.212Z,14.76
2023-08-09T03:07:31.129Z,14.77
2023-08-09T03:09:59.168Z,14.79
2023-08-09T03:12:35.056Z,14.77
2023-08-09T03:15:02.478Z,14.77
2023-08-09T03:17:29.041Z,14.73
2023-08-09T03:19:55.646Z,14.73
2023-08-09T03:22:22.376Z,14.67
2023-08-09T03:24:49.529Z,14.69
2023-08-09T03:27:16.591Z,14.73
2023-08-09T03:29:44.368Z,14.76
2023-08-09T03:32:16.559Z,14.80
2023-08-09T03:34:43.172Z,14.64
2023-08-09T03:37:10.309Z,14.57
2023-08-09T03:39:37.026Z,14.46
2023-08-09T03:42:06.847Z,14.30
2023-08-09T03:44:36.119Z,14.37
2023-08-09T03:47:05.766Z,14.56
2023-08-09T03:49:33.112Z,14.60
2023-08-09T03:51:59.809Z,14.49
2023-08-09T03:54:29.919Z,14.35
2023-08-09T03:56:56.539Z,14.30
2023-08-09T03:59:24.396Z,14.33
2023-08-09T04:01:50.997Z,14.37
2023-08-09T04:04:20.533Z,14.49
2023-08-09T04:06:49.527Z,14.63
2023-08-09T04:09:16.435Z,14.63
2023-08-09T04:11:43.590Z,14.59
2023-08-09T04:14:10.305Z,14.53
2023-08-09T04:16:37.028Z,14.79
2023-08-09T04:19:06.820Z,14.56
2023-08-09T04:21:36.139Z,14.44
2023-08-09T04:24:06.560Z,14.33
2023-08-09T04:26:34.791Z,14.39
2023-08-09T04:29:01.318Z,14.40
2023-08-09T04:31:27.901Z,14.40
2023-08-09T04:33:54.620Z,14.25
2023-08-09T04:36:21.650Z,14.25
2023-08-09T04:38:48.322Z,14.23
2023-08-09T04:41:17.150Z,14.23
2023-08-09T04:43:44.530Z,14.22
2023-08-09T04:46:14.779Z,14.21
2023-08-09T04:48:42.376Z,14.25
2023-08-09T04:51:10.057Z,14.28
2023-08-09T04:53:37.662Z,14.25
2023-08-09T04:56:05.258Z,14.25
2023-08-09T04:58:32.407Z,14.23
2023-08-09T05:00:59.332Z,14.28
2023-08-09T05:03:25.810Z,14.33
2023-08-09T05:05:52.374Z,14.35
2023-08-09T05:08:19.395Z,14.39
2023-08-09T05:10:46.032Z,14.37
2023-08-09T05:13:12.735Z,14.43
2023-08-09T05:15:39.254Z,14.49
2023-08-09T05:18:05.987Z,14.49
2023-08-09T05:20:33.129Z,14.52
2023-08-09T05:22:59.820Z,14.62
2023-08-09T05:25:26.409Z,14.63
2023-08-09T05:27:52.909Z,14.59
2023-08-09T05:30:21.770Z,14.57
2023-08-09T05:32:48.767Z,14.53
2023-08-09T05:35:15.461Z,14.52
2023-08-09T05:37:41.952Z,14.53
2023-08-09T05:40:14.114Z,14.73
2023-08-09T05:42:41.151Z,14.91
2023-08-09T05:45:07.958Z,14.90
2023-08-09T05:47:34.689Z,15.07
2023-08-09T05:50:01.242Z,15.25
2023-08-09T05:52:27.762Z,15.18
2023-08-09T05:54:54.291Z,15.34
2023-08-09T05:57:20.826Z,15.48
2023-08-09T05:59:47.888Z,15.35
2023-08-09T06:02:14.852Z,15.45
2023-08-09T06:04:45.401Z,15.39
2023-08-09T06:07:12.970Z,15.67
2023-08-09T06:09:40.127Z,15.65
2023-08-09T06:12:06.716Z,15.79
2023-08-09T06:14:35.075Z,15.79
2023-08-09T06:17:01.824Z,15.91
2023-08-09T06:19:28.703Z,15.80
2023-08-09T06:21:55.269Z,15.82
2023-08-09T06:24:21.847Z,15.67
2023-08-09T06:26:50.064Z,15.67
2023-08-09T06:32:36.510Z,15.89
2023-08-09T06:35:03.323Z,15.90
2023-08-09T06:37:29.832Z,15.80
2023-08-09T06:39:56.303Z,15.91
2023-08-09T06:42:22.835Z,16.09
2023-08-09T06:44:49.436Z,16.22
2023-08-09T06:47:16.077Z,16.21
2023-08-09T06:49:43.662Z,16.24
2023-08-09T06:52:10.132Z,16.20
2023-08-09T06:54:52.865Z,16.34
2023-08-09T06:57:26.623Z,16.38
2023-08-09T07:00:01.541Z,16.44
2023-08-09T07:02:37.647Z,16.40
2023-08-09T07:05:18.903Z,16.42
2023-08-09T07:10:50.973Z,16.64
2023-08-09T07:13:50.776Z,16.78
2023-08-09T07:16:25.602Z,16.95
2023-08-09T07:19:00.049Z,17.10
2023-08-09T07:21:34.100Z,17.19
2023-08-09T07:24:00.678Z,17.43
2023-08-09T07:26:27.930Z,17.21
2023-08-09T07:28:54.737Z,17.29
2023-08-09T07:31:25.201Z,17.38
2023-08-09T07:33:52.253Z,17.38
2023-08-09T07:36:19.467Z,17.30
2023-08-09T07:38:46.154Z,17.41
2023-08-09T07:41:12.706Z,17.38
2023-08-09T07:43:39.336Z,17.41
2023-08-09T07:46:07.477Z,17.46
2023-08-09T07:48:34.705Z,17.38
2023-08-09T07:51:01.925Z,17.38
2023-08-09T07:53:28.587Z,17.37
2023-08-09T07:55:55.215Z,17.65
2023-08-09T07:58:21.914Z,17.81
2023-08-09T08:00:50.655Z,17.75
2023-08-09T08:03:18.328Z,19.16
2023-08-09T08:05:46.632Z,20.93
2023-08-09T08:08:16.076Z,22.03
2023-08-09T08:10:43.286Z,20.04
2023-08-09T08:13:10.040Z,20.00
2023-08-09T08:15:38.197Z,20.31
2023-08-09T08:18:06.038Z,21.95
2023-08-09T08:20:33.932Z,22.90
2023-08-09T08:23:01.299Z,23.24
2023-08-09T08:25:27.943Z,22.10
2023-08-09T08:27:54.486Z,22.81
2023-08-09T08:30:24.648Z,23.29
2023-08-09T08:32:54.639Z,22.90
2023-08-09T08:35:21.942Z,23.56
2023-08-09T08:37:54.609Z,23.02
2023-08-09T08:40:24.429Z,23.01
2023-08-09T08:42:51.424Z,22.13
2023-08-09T08:45:20.573Z,23.36
2023-08-09T08:47:49.071Z,22.90
2023-08-09T08:50:17.291Z,23.41
2023-08-09T08:52:46.524Z,24.79
2023-08-09T08:55:14.178Z,24.76
2023-08-09T08:57:42.134Z,25.71
2023-08-09T09:00:26.887Z,23.86
2023-08-09T09:02:54.797Z,23.01
2023-08-09T09:05:21.951Z,22.35
2023-08-09T09:07:52.119Z,21.99
2023-08-09T09:10:22.044Z,23.92
2023-08-09T09:12:57.001Z,24.37
2023-08-09T09:15:24.959Z,24.38
2023-08-09T09:17:52.595Z,24.86
2023-08-09T09:20:26.084Z,23.41
2023-08-09T09:22:54.859Z,22.51
2023-08-09T09:25:23.899Z,21.52
2023-08-09T09:27:56.212Z,20.22
2023-08-09T09:30:25.706Z,19.74
2023-08-09T09:32:52.595Z,19.74
2023-08-09T09:35:23.113Z,19.64
2023-08-09T09:37:50.691Z,20.15
2023-08-09T09:40:39.260Z,21.31
2023-08-09T09:43:06.889Z,21.60
2023-08-09T09:45:34.622Z,20.93
2023-08-09T09:48:03.339Z,24.01
2023-08-09T09:50:33.103Z,25.24
2023-08-09T09:53:04.552Z,25.84
2023-08-09T09:55:31.866Z,24.14
2023-08-09T09:57:59.534Z,25.73
2023-08-09T10:00:38.639Z,25.16
2023-08-09T10:03:05.704Z,27.15
2023-08-09T10:05:37.462Z,26.01
2023-08-09T10:08:12.618Z,24.92
2023-08-09T10:10:43.465Z,25.19
2023-08-09T10:13:12.292Z,24.96
2023-08-09T10:15:47.368Z,25.33
2023-08-09T10:18:19.493Z,24.85
2023-08-09T10:20:51.794Z,23.62
2023-08-09T10:23:27.892Z,23.14
2023-08-09T10:25:56.771Z,24.49
2023-08-09T10:28:48.851Z,25.37
2023-08-09T10:31:17.533Z,25.31
2023-08-09T10:34:09.815Z,24.16
2023-08-09T10:36:36.657Z,22.59
2023-08-09T10:39:10.925Z,23.67
2023-08-09T10:41:40.992Z,24.90
2023-08-09T10:44:07.695Z,25.58
2023-08-09T10:46:35.495Z,25.13
2023-08-09T10:49:05.958Z,25.34
2023-08-09T10:51:34.309Z,22.84
2023-08-09T10:54:07.307Z,23.05
2023-08-09T10:56:43.006Z,23.12
2023-08-09T10:59:13.993Z,23.32
2023-08-09T11:01:42.838Z,23.59
2023-08-09T11:04:12.034Z,22.73
2023-08-09T11:06:41.220Z,21.04
2023-08-09T11:09:09.820Z,21.14
2023-08-09T11:11:37.434Z,21.31
2023-08-09T11:14:05.021Z,21.42
2023-08-09T11:16:33.114Z,21.85
2023-08-09T11:19:03.561Z,22.85
2023-08-09T11:21:54.952Z,22.47
2023-08-09T11:24:23.642Z,22.71
2023-08-09T11:26:58.193Z,23.02
2023-08-09T11:29:30.720Z,23.61
2023-08-09T11:31:59.441Z,24.24
2023-08-09T11:34:27.508Z,25.02
2023-08-09T11:36:56.020Z,24.20
2023-08-09T11:39:25.242Z,25.12
2023-08-09T11:41:52.430Z,23.92
2023-08-09T11:44:27.154Z,24.32
2023-08-09T11:46:55.460Z,24.51
2023-08-09T11:49:31.877Z,24.86
2023-08-09T11:52:03.453Z,24.42
2023-08-09T11:54:31.868Z,23.82
2023-08-09T11:57:02.216Z,24.27
2023-08-09T11:59:29.279Z,24.35
2023-08-09T12:01:59.080Z,24.21
2023-08-09T12:04:33.087Z,24.25
2023-08-09T12:07:07.968Z,24.01
2023-08-09T12:09:43.416Z,23.92
2023-08-09T12:12:11.121Z,22.99
2023-08-09T12:14:40.221Z,23.05
2023-08-09T12:17:07.809Z,23.14
2023-08-09T12:19:35.787Z,22.84
2023-08-09T12:22:04.009Z,22.83
2023-08-09T12:24:30.667Z,23.22
2023-08-09T12:26:57.295Z,23.28
2023-08-09T12:29:23.870Z,22.97
2023-08-09T12:31:51.115Z,23.07
2023-08-09T12:34:17.800Z,23.01
2023-08-09T12:36:44.379Z,23.26
2023-08-09T12:39:15.291Z,23.41
2023-08-09T12:41:43.163Z,23.79
2023-08-09T12:44:09.895Z,24.04
2023-08-09T12:46:41.170Z,22.84
2023-08-09T12:49:08.173Z,23.84
2023-08-09T12:51:35.714Z,23.82
2023-08-09T12:54:02.307Z,23.46
2023-08-09T12:59:01.373Z,23.53
2023-08-09T13:01:28.522Z,24.45
2023-08-09T13:03:55.501Z,24.89
2023-08-09T13:06:22.188Z,25.87
2023-08-09T13:08:49.521Z,25.97
2023-08-09T13:11:16.496Z,26.47
2023-08-09T13:13:42.978Z,26.02
2023-08-09T13:16:10.656Z,25.51
2023-08-09T13:18:40.648Z,25.47
2023-08-09T13:21:13.214Z,25.85
2023-08-09T13:23:41.051Z,26.45
2023-08-09T13:26:09.010Z,26.63
2023-08-09T13:28:36.139Z,28.29
2023-08-09T13:31:02.799Z,28.47
2023-08-09T13:33:29.472Z,27.38
2023-08-09T13:35:59.537Z,28.37
2023-08-09T13:38:30.397Z,28.89
2023-08-09T13:40:58.476Z,29.35
2023-08-09T13:43:26.207Z,29.70
2023-08-09T13:45:53.353Z,29.40
2023-08-09T13:48:20.063Z,28.31
2023-08-09T13:50:48.582Z,26.76
2023-08-09T13:53:16.132Z,28.20
2023-08-09T13:55:46.384Z,26.28
2023-08-09T13:58:13.634Z,25.44
2023-08-09T14:00:40.996Z,27.18
2023-08-09T14:03:09.990Z,25.95
2023-08-09T14:05:38.033Z,26.97
2023-08-09T14:08:06.230Z,26.12
2023-08-09T14:10:33.349Z,26.98
2023-08-09T14:13:02.519Z,26.76
2023-08-09T14:15:33.108Z,27.05
2023-08-09T14:18:00.294Z,25.75
2023-08-09T14:20:27.791Z,26.72
2023-08-09T14:22:54.476Z,25.98
2023-08-09T14:25:24.590Z,24.99
2023-08-09T14:27:53.288Z,25.36
2023-08-09T14:30:20.924Z,25.51
2023-08-09T14:32:47.692Z,25.31
2023-08-09T14:35:14.289Z,26.18
2023-08-09T14:37:44.545Z,26.02
2023-08-09T14:40:11.621Z,25.06
2023-08-09T14:42:39.707Z,25.31
2023-08-09T14:45:08.627Z,26.70
2023-08-09T14:47:35.569Z,27.38
2023-08-09T14:50:02.224Z,27.63
2023-08-09T14:52:29.181Z,27.65
2023-08-09T14:54:55.818Z,26.07
2023-08-09T14:57:22.505Z,25.98
2023-08-09T14:59:49.539Z,25.85
2023-08-09T15:02:18.308Z,25.63
2023-08-09T15:04:46.664Z,25.73
2023-08-09T15:07:17.476Z,25.41
2023-08-09T15:09:46.930Z,26.42
2023-08-09T15:12:13.426Z,26.91
2023-08-09T15:14:42.633Z,26.11
2023-08-09T15:17:23.581Z,26.90
2023-08-09T15:19:53.328Z,25.26
2023-08-09T15:22:21.379Z,25.70
2023-08-09T15:24:48.235Z,26.29
2023-08-09T15:27:15.377Z,25.30
2023-08-09T15:29:42.176Z,25.99
2023-08-09T15:32:08.846Z,24.82
2023-08-09T15:34:35.802Z,25.09
2023-08-09T15:37:02.523Z,26.36
2023-08-09T15:39:29.908Z,25.63
2023-08-09T15:42:07.455Z,26.39
2023-08-09T15:44:34.587Z,25.54
2023-08-09T15:47:01.403Z,25.75
2023-08-09T15:49:31.845Z,25.36
2023-08-09T15:51:58.413Z,23.96
2023-08-09T15:54:24.905Z,24.67
2023-08-09T15:56:52.680Z,24.76
2023-08-09T15:59:19.426Z,25.47
2023-08-09T16:01:46.527Z,25.60
2023-08-09T16:04:14.162Z,25.87
2023-08-09T16:06:40.728Z,27.13
2023-08-09T16:09:15.408Z,27.10
2023-08-09T16:11:44.538Z,26.14
2023-08-09T16:14:11.562Z,26.15
2023-08-09T16:16:38.520Z,24.99
2023-08-09T16:19:06.128Z,25.19
2023-08-09T16:21:32.698Z,25.46
2023-08-09T16:24:00.235Z,24.79
2023-08-09T16:26:29.369Z,24.90
2023-08-09T16:28:56.777Z,24.61
2023-08-09T16:31:23.836Z,25.27
2023-08-09T16:33:51.394Z,24.88
2023-08-09T16:36:18.011Z,24.83
2023-08-09T16:38:45.011Z,24.62
2023-08-09T16:41:12.770Z,24.79
2023-08-09T16:43:39.792Z,25.13
2023-08-09T16:46:06.603Z,25.30
2023-08-09T16:48:33.696Z,25.04
2023-08-09T16:51:00.295Z,24.85
2023-08-09T16:53:29.019Z,23.97
2023-08-09T16:55:55.602Z,23.98
2023-08-09T16:58:22.105Z,23.97
2023-08-09T17:00:48.722Z,23.94
2023-08-09T17:03:15.676Z,23.39
2023-08-09T17:05:43.456Z,23.47
2023-08-09T17:08:13.500Z,23.65
2023-08-09T17:10:40.056Z,23.59
2023-08-09T17:13:07.008Z,24.23
2023-08-09T17:15:33.868Z,24.79
2023-08-09T17:18:00.534Z,24.37
2023-08-09T17:20:27.177Z,24.04
2023-08-09T17:22:56.407Z,23.50
2023-08-09T17:25:23.174Z,22.85
2023-08-09T17:27:49.811Z,22.57
2023-08-09T17:30:16.912Z,22.50
2023-08-09T17:32:43.540Z,22.40
2023-08-09T17:35:11.013Z,22.44
2023-08-09T17:37:37.719Z,22.44
2023-08-09T17:40:04.602Z,22.36
2023-08-09T17:42:31.202Z,22.36
2023-08-09T17:45:00.354Z,22.32
2023-08-09T17:47:26.931Z,22.30
2023-08-09T17:49:53.511Z,22.39
2023-08-09T17:52:20.060Z,22.23
2023-08-09T17:57:44.636Z,22.08
2023-08-09T18:00:21.881Z,21.96
2023-08-09T18:02:49.179Z,21.89
2023-08-09T18:05:16.256Z,21.81
2023-08-09T18:07:43.108Z,21.77
2023-08-09T18:10:14.069Z,21.98
2023-08-09T18:12:42.030Z,21.96
2023-08-09T18:15:10.106Z,21.89
2023-08-09T18:17:39.527Z,22.00
2023-08-09T18:20:15.869Z,22.00
2023-08-09T18:22:47.183Z,21.77
2023-08-09T18:25:15.118Z,21.77
2023-08-09T18:27:42.269Z,21.82
2023-08-09T18:30:11.772Z,21.68
2023-08-09T18:32:39.090Z,21.68
2023-08-09T18:35:17.843Z,21.78
2023-08-09T18:37:46.519Z,21.64
2023-08-09T18:40:16.360Z,21.57
2023-08-09T18:42:44.192Z,21.38
2023-08-09T18:45:11.502Z,21.34
2023-08-09T18:47:38.285Z,21.23
2023-08-09T18:50:05.315Z,21.19
2023-08-09T18:52:32.154Z,21.07
2023-08-09T18:54:58.781Z,21.07
2023-08-09T18:57:25.380Z,21.00
2023-08-09T18:59:51.880Z,20.86
2023-08-09T19:02:18.893Z,20.73
2023-08-09T19:04:45.772Z,20.65
2023-08-09T19:07:16.443Z,20.58
2023-08-09T19:09:44.390Z,20.59
2023-08-09T19:12:10.935Z,20.48
2023-08-09T19:14:37.409Z,20.36
2023-08-09T19:17:04.692Z,20.39
2023-08-09T19:19:31.503Z,20.34
2023-08-09T19:21:58.500Z,20.39
2023-08-09T19:24:25.113Z,20.44
2023-08-09T19:26:52.874Z,20.24
2023-08-09T19:29:19.340Z,20.22
2023-08-09T19:31:45.795Z,20.17
2023-08-09T19:34:12.502Z,20.07
2023-08-09T19:36:38.964Z,20.00
2023-08-09T19:39:05.721Z,19.90
2023-08-09T19:41:33.526Z,19.87
2023-08-09T19:44:00.057Z,19.85
2023-08-09T19:46:26.522Z,20.01
2023-08-09T19:48:53.137Z,19.94
2023-08-09T19:51:21.832Z,19.77
2023-08-09T19:53:48.319Z,19.64
2023-08-09T19:56:17.207Z,19.62
2023-08-09T19:58:49.954Z,19.56
2023-08-09T20:01:16.634Z,19.50
2023-08-09T20:03:43.222Z,19.52
2023-08-09T20:06:10.624Z,19.57
2023-08-09T20:08:37.832Z,19.50
2023-08-09T20:11:06.029Z,19.41
2023-08-09T20:13:33.250Z,19.28
2023-08-09T20:16:00.671Z,19.28
2023-08-09T20:18:27.220Z,19.29
2023-08-09T20:20:54.492Z,19.22
2023-08-09T20:23:21.851Z,19.05
2023-08-09T20:25:49.714Z,19.05
2023-08-09T20:28:17.330Z,19.05
2023-08-09T20:30:45.833Z,18.99
2023-08-09T20:33:12.574Z,18.75
2023-08-09T20:35:40.558Z,18.64
2023-08-09T20:38:07.671Z,18.60
2023-08-09T20:40:38.037Z,18.60
2023-08-09T20:43:05.150Z,18.58
2023-08-09T20:45:33.336Z,18.54
2023-08-09T20:48:00.372Z,18.47
2023-08-09T20:50:27.183Z,18.30
2023-08-09T20:52:53.626Z,18.22
2023-08-09T20:55:20.171Z,18.17
2023-08-09T20:57:47.297Z,18.15
2023-08-09T21:00:14.933Z,18.13
2023-08-09T21:02:42.732Z,18.17
2023-08-09T21:05:10.155Z,17.96
2023-08-09T21:07:37.987Z,17.89
2023-08-09T21:10:05.121Z,17.72
2023-08-09T21:12:32.734Z,17.68
2023-08-09T21:14:59.506Z,17.62
2023-08-09T21:17:26.342Z,17.62
2023-08-09T21:19:52.865Z,17.78
2023-08-09T21:22:19.473Z,17.74
2023-08-09T21:25:42.762Z,17.71
2023-08-09T21:27:32.617Z,17.55
2023-08-09T21:30:00.793Z,17.58
2023-08-09T21:32:27.446Z,17.55
2023-08-09T21:34:53.874Z,17.47
2023-08-09T21:37:20.829Z,17.41
2023-08-09T21:39:50.795Z,17.43
2023-08-09T21:42:18.960Z,17.36
2023-08-09T21:44:45.411Z,17.41
2023-08-09T21:47:11.904Z,17.40
2023-08-09T21:49:38.516Z,17.36
2023-08-09T21:52:05.492Z,17.23
2023-08-09T21:54:32.265Z,17.14
2023-08-09T21:56:58.747Z,17.02
2023-08-09T21:59:25.254Z,16.99
2023-08-09T22:01:51.883Z,16.85
2023-08-09T22:04:18.629Z,16.85
2023-08-09T22:06:45.094Z,16.92
2023-08-09T22:09:11.824Z,16.67
2023-08-09T22:11:38.513Z,16.76
2023-08-09T22:14:05.120Z,16.80
2023-08-09T22:16:32.186Z,16.69
2023-08-09T22:18:58.790Z,16.64
2023-08-09T22:21:25.357Z,16.54
2023-08-09T22:23:51.976Z,16.52
2023-08-09T22:26:20.935Z,16.45
2023-08-09T22:28:48.239Z,16.34
2023-08-09T22:31:14.827Z,16.28
2023-08-09T22:33:41.419Z,16.21
2023-08-09T22:36:07.944Z,16.01
2023-08-09T22:38:34.646Z,16.04
2023-08-09T22:41:01.220Z,15.85
2023-08-09T22:43:28.547Z,15.96
2023-08-09T22:45:55.143Z,15.87
2023-08-09T22:48:21.955Z,15.73
2023-08-09T22:50:49.179Z,15.66
2023-08-09T22:53:16.179Z,15.66
2023-08-09T22:55:43.166Z,15.73
2023-08-09T22:58:09.733Z,15.72
2023-08-09T23:00:36.265Z,15.62
2023-08-09T23:03:04.250Z,15.61
2023-08-09T23:05:30.884Z,15.53
2023-08-09T23:07:57.430Z,15.55
2023-08-09T23:10:24.171Z,15.53
2023-08-09T23:12:50.652Z,15.48
2023-08-09T23:15:17.776Z,15.46
2023-08-09T23:17:44.217Z,15.52
2023-08-09T23:20:11.562Z,15.39
2023-08-09T23:22:38.184Z,15.55
2023-08-09T23:25:07.591Z,15.34
2023-08-09T23:27:37.227Z,15.41
2023-08-09T23:30:07.383Z,15.18
2023-08-09T23:32:34.840Z,15.18
2023-08-09T23:35:04.104Z,15.04
2023-08-09T23:37:30.560Z,15.00
2023-08-09T23:39:57.168Z,14.97
2023-08-09T23:42:24.248Z,15.03
2023-08-09T23:44:52.723Z,15.31
2023-08-09T23:47:20.190Z,15.35
2023-08-09T23:49:47.593Z,15.42
2023-08-09T23:52:14.797Z,15.35
2023-08-09T23:54:41.275Z,15.53
